createdAt,value
2023-05-18T00:04:45.553Z,0
2023-05-18T00:10:03.409Z,0
2023-05-18T00:15:21.620Z,0
2023-05-18T00:20:38.978Z,0
2023-05-18T00:25:58.548Z,0
2023-05-18T00:31:16.076Z,0
2023-05-18T00:36:33.488Z,0
2023-05-18T00:41:51.111Z,0
2023-05-18T00:47:13.546Z,0
2023-05-18T00:52:31.096Z,0
2023-05-18T00:57:48.558Z,0
2023-05-18T01:03:05.893Z,0
2023-05-18T01:08:24.462Z,0
2023-05-18T01:13:41.813Z,0
2023-05-18T01:18:59.397Z,0
2023-05-18T01:24:24.178Z,0
2023-05-18T01:29:41.680Z,0
2023-05-18T01:34:58.892Z,0
2023-05-18T01:40:15.918Z,0
2023-05-18T01:45:36.204Z,0
2023-05-18T01:50:53.548Z,0
2023-05-18T01:56:10.909Z,0
2023-05-18T02:01:28.240Z,0
2023-05-18T02:06:45.805Z,0
2023-05-18T02:12:05.915Z,0
2023-05-18T02:17:23.295Z,0
2023-05-18T02:22:40.678Z,0
2023-05-18T02:28:15.025Z,0
2023-05-18T02:33:32.525Z,0
2023-05-18T02:38:49.752Z,0
2023-05-18T02:44:06.919Z,0
2023-05-18T02:49:24.251Z,0
2023-05-18T02:54:41.627Z,0
2023-05-18T03:00:08.061Z,0
2023-05-18T03:05:25.649Z,0
2023-05-18T03:10:42.666Z,0
2023-05-18T03:15:59.894Z,0
2023-05-18T03:21:17.368Z,0.5
2023-05-18T03:26:34.332Z,22.5
2023-05-18T03:31:51.265Z,43.3
2023-05-18T03:37:11.245Z,77.5
2023-05-18T03:42:30.761Z,125.4
2023-05-18T03:47:48.277Z,189.6
2023-05-18T03:53:05.541Z,276.2
2023-05-18T03:58:22.534Z,389.6
2023-05-18T04:03:39.687Z,516.2
2023-05-18T04:08:56.733Z,655.4
2023-05-18T04:19:36.615Z,943.3
2023-05-18T04:24:53.807Z,1091.7
2023-05-18T04:30:18.402Z,1242.1
2023-05-18T04:35:35.790Z,1393.3
2023-05-18T04:40:53.158Z,1568.3
2023-05-18T04:46:10.394Z,1742.1
2023-05-18T04:51:31.243Z,1926.7
2023-05-18T04:56:48.511Z,2090
2023-05-18T05:02:05.629Z,2226.3
2023-05-18T05:07:22.658Z,2318.3
2023-05-18T05:12:39.593Z,2480.4
2023-05-18T05:17:56.652Z,2706.7
2023-05-18T05:23:13.746Z,2793.8
2023-05-18T05:28:31.053Z,2884.2
2023-05-18T05:33:48.068Z,3068.3
2023-05-18T05:39:05.147Z,3242.9
2023-05-18T05:44:22.283Z,3422.9
2023-05-18T05:49:39.599Z,3515.4
2023-05-18T05:54:56.666Z,3698.3
2023-05-18T06:00:13.738Z,4147.5
2023-05-18T06:05:31.220Z,4179.2
2023-05-18T06:10:48.574Z,4502.9
2023-05-18T06:16:05.808Z,4161.2
2023-05-18T06:21:22.880Z,4099.6
2023-05-18T06:26:42.480Z,5005.8
2023-05-18T06:32:00.208Z,4298.3
2023-05-18T06:37:17.252Z,4359.2
2023-05-18T06:42:34.163Z,4395.4
2023-05-18T06:47:54.476Z,5212.5
2023-05-18T06:53:11.759Z,7578.8
2023-05-18T06:58:28.936Z,4802.5
2023-05-18T07:03:46.483Z,4798.3
2023-05-18T07:09:03.942Z,5114.2
2023-05-18T07:14:37.798Z,9001.7
2023-05-18T07:19:55.443Z,5737.5
2023-05-18T07:25:12.741Z,6055
2023-05-18T07:30:29.880Z,6721.7
2023-05-18T07:35:47.047Z,16386.7
2023-05-18T07:41:04.355Z,13608.7
2023-05-18T07:46:21.746Z,6946.7
2023-05-18T07:57:02.935Z,10319.2
2023-05-18T08:02:20.090Z,8711.2
2023-05-18T08:07:37.559Z,7649.2
2023-05-18T08:12:54.872Z,14396.3
2023-05-18T08:18:12.138Z,18450
2023-05-18T08:23:29.482Z,23189.6
2023-05-18T08:28:47.248Z,42825
2023-05-18T08:34:04.944Z,42186.7
2023-05-18T08:39:21.651Z,11765.4
2023-05-18T08:44:39.049Z,12205
2023-05-18T08:49:56.967Z,26681.7
2023-05-18T08:55:13.434Z,43909.2
2023-05-18T09:00:30.184Z,38744.2
2023-05-18T09:05:47.596Z,38997.5
2023-05-18T09:11:06.040Z,43514.2
2023-05-18T09:16:22.770Z,51980
2023-05-18T09:21:41.830Z,51234.3
2023-05-18T09:27:01.579Z,50377.2
2023-05-18T09:32:18.113Z,51724.8
2023-05-18T09:37:36.710Z,59694
2023-05-18T09:48:11.338Z,13734.6
2023-05-18T09:53:26.709Z,20964.6
2023-05-18T09:58:44.657Z,18406.7
2023-05-18T10:04:00.670Z,33235
2023-05-18T10:09:21.317Z,57140.6
2023-05-18T10:14:39.738Z,22505.4
2023-05-18T10:19:54.482Z,17320
2023-05-18T10:25:11.356Z,53999.7
2023-05-18T10:30:29.764Z,41750
2023-05-18T10:35:47.567Z,63145.8
2023-05-18T10:41:05.247Z,63214.1
2023-05-18T10:46:22.002Z,17205
2023-05-18T10:51:37.776Z,59018.4
2023-05-18T10:56:55.652Z,61120.7
2023-05-18T11:02:14.250Z,22253.3
2023-05-18T11:07:28.727Z,60960.8
2023-05-18T11:12:48.396Z,61176.4
2023-05-18T11:18:06.253Z,59138.8
2023-05-18T11:23:22.905Z,67163.6
2023-05-18T11:28:39.517Z,64883.4
2023-05-18T11:33:58.205Z,60378.6
2023-05-18T11:39:15.600Z,55778.6
2023-05-18T11:44:33.164Z,57733.6
2023-05-18T11:54:57.257Z,20916.2
2023-05-18T12:00:13.889Z,13884.2
2023-05-18T12:05:29.899Z,55712.1
2023-05-18T12:10:50.585Z,46439.2
2023-05-18T12:16:08.143Z,53651.1
2023-05-18T12:21:25.446Z,21735
2023-05-18T12:26:40.464Z,14955.8
2023-05-18T12:31:56.760Z,50891.1
2023-05-18T12:37:15.678Z,56100.2
2023-05-18T12:42:31.855Z,59057.9
2023-05-18T12:47:47.512Z,17950
2023-05-18T12:53:05.848Z,58461.3
2023-05-18T12:58:24.072Z,17956.2
2023-05-18T13:03:41.285Z,49879.2
2023-05-18T13:08:59.067Z,30230.8
2023-05-18T13:14:15.745Z,53365.4
2023-05-18T13:19:31.869Z,48365.8
2023-05-18T13:24:50.590Z,51467.9
2023-05-18T13:30:08.109Z,43290.8
2023-05-18T13:40:41.511Z,38828.3
2023-05-18T13:45:58.022Z,42290
2023-05-18T13:51:15.530Z,26868.3
2023-05-18T14:01:54.036Z,44879.2
2023-05-18T14:07:11.600Z,14083.3
2023-05-18T14:12:27.163Z,45403.3
2023-05-18T14:17:43.265Z,37473.3
2023-05-18T14:23:04.292Z,36665
2023-05-18T14:28:21.493Z,24956.2
2023-05-18T14:33:36.299Z,20190.4
2023-05-18T14:38:54.140Z,34385.8
2023-05-18T14:44:13.286Z,33985
2023-05-18T14:49:30.708Z,36758.3
2023-05-18T14:54:48.642Z,36520.8
2023-05-18T15:00:05.605Z,28558.3
2023-05-18T15:05:22.146Z,22865.4
2023-05-18T15:10:38.145Z,21005.8
2023-05-18T15:15:54.543Z,20832.5
2023-05-18T15:21:10.872Z,14713.3
2023-05-18T15:26:27.367Z,12923.3
2023-05-18T15:31:43.319Z,13700.4
2023-05-18T15:37:00.548Z,17239.2
2023-05-18T15:42:17.786Z,15690
2023-05-18T15:47:34.909Z,14300.8
2023-05-18T15:52:51.540Z,13985.8
2023-05-18T15:58:08.605Z,14699.2
2023-05-18T16:03:25.273Z,11644.6
2023-05-18T16:08:41.686Z,6903.3
2023-05-18T16:13:57.956Z,6503.3
2023-05-18T16:19:14.582Z,6200.4
2023-05-18T16:24:32.000Z,6201.7
2023-05-18T16:29:49.362Z,6175.8
2023-05-18T16:35:08.495Z,5968.3
2023-05-18T16:40:25.653Z,5821.7
2023-05-18T16:45:45.067Z,5823.8
2023-05-18T16:51:02.185Z,5463.3
2023-05-18T16:56:19.298Z,5280
2023-05-18T17:01:38.717Z,5021.7
2023-05-18T17:06:55.834Z,4735
2023-05-18T17:12:12.684Z,4408.3
2023-05-18T17:17:29.684Z,4122.5
2023-05-18T17:22:47.009Z,3813.3
2023-05-18T17:28:03.915Z,3578.8
2023-05-18T17:33:30.123Z,3421.7
2023-05-18T17:38:46.916Z,3270
2023-05-18T17:44:07.014Z,3143.8
2023-05-18T17:49:24.050Z,2995
2023-05-18T17:54:40.998Z,2770.4
2023-05-18T17:59:58.124Z,2536.3
2023-05-18T18:05:15.041Z,2337.5
2023-05-18T18:10:32.074Z,2135.8
2023-05-18T18:15:49.364Z,1941.3
2023-05-18T18:21:06.160Z,1744.6
2023-05-18T18:31:46.652Z,1348.7
2023-05-18T18:37:04.943Z,1173.3
2023-05-18T18:42:21.794Z,1004.2
2023-05-18T18:47:39.061Z,840
2023-05-18T18:52:56.029Z,685
2023-05-18T18:58:12.986Z,542.9
2023-05-18T19:03:29.732Z,413.3
2023-05-18T19:08:46.556Z,301.7
2023-05-18T19:14:10.897Z,208.8
2023-05-18T19:19:28.054Z,138.8
2023-05-18T19:24:47.679Z,89.2
2023-05-18T19:30:07.357Z,54.6
2023-05-18T19:35:24.421Z,28.7
2023-05-18T19:40:58.959Z,15.3
2023-05-18T19:46:16.339Z,6.9
2023-05-18T19:51:36.314Z,3.2
2023-05-18T19:56:53.616Z,1.4
2023-05-18T20:02:13.200Z,0.6
2023-05-18T20:07:30.753Z,0.1
2023-05-18T20:12:48.013Z,0
2023-05-18T20:18:06.742Z,0
2023-05-18T20:23:24.262Z,0
2023-05-18T20:28:41.464Z,0
2023-05-18T20:33:58.935Z,0
2023-05-18T20:39:16.108Z,0
2023-05-18T20:44:33.403Z,0
2023-05-18T20:49:59.704Z,0
2023-05-18T20:55:17.109Z,0
2023-05-18T21:00:34.544Z,0
2023-05-18T21:06:00.707Z,0
2023-05-18T21:11:18.446Z,0
2023-05-18T21:16:35.944Z,0
2023-05-18T21:21:53.204Z,0
2023-05-18T21:27:10.641Z,0
2023-05-18T21:32:30.165Z,0
2023-05-18T21:37:47.580Z,0
2023-05-18T21:43:10.718Z,0
2023-05-18T21:48:28.334Z,0
2023-05-18T21:53:45.670Z,0
2023-05-18T21:59:02.956Z,0
2023-05-18T22:04:20.229Z,0
2023-05-18T22:09:37.606Z,0
2023-05-18T22:14:54.724Z,0
2023-05-18T22:20:14.781Z,0
2023-05-18T22:25:34.754Z,0
2023-05-18T22:30:52.126Z,0
2023-05-18T22:36:09.245Z,0
2023-05-18T22:41:26.788Z,0
2023-05-18T22:46:44.152Z,0
2023-05-18T22:52:02.229Z,0
2023-05-18T22:57:26.865Z,0
2023-05-18T23:02:44.440Z,0
2023-05-18T23:08:05.004Z,0
2023-05-18T23:13:22.279Z,0
2023-05-18T23:18:39.909Z,0
2023-05-18T23:23:57.355Z,0
2023-05-18T23:29:14.600Z,0
2023-05-18T23:34:35.360Z,0
2023-05-18T23:39:52.516Z,0
2023-05-18T23:45:12.431Z,0
2023-05-18T23:50:29.775Z,0
2023-05-18T23:55:47.359Z,0
